Time;durP1;ratioP1;P1;durP2;ratioP2;P2;SDS_P1;SDS_P2;PMS_P1;PMS_P2;Temp;Humidity;BMP_temperature;BMP_pressure;BME280_temperature;BME280_humidity;BME280_pressure;Samples;Min_cycle;Max_cycle;Signal;HPM_P1;HPM_P2
2021/04/21 00:02:02;;;;;;;22.77;14.30;;;11.20;93.20;;;;;;5031682;28;20487;-70
2021/04/21 00:04:29;;;;;;;24.05;14.00;;;11.20;93.30;;;;;;5031708;28;20025;-70
2021/04/21 00:06:57;;;;;;;15.10;9.77;;;11.10;93.40;;;;;;5031331;28;20037;-70
2021/04/21 00:09:24;;;;;;;14.30;8.85;;;11.10;92.50;;;;;;5032485;28;20056;-70
2021/04/21 00:11:51;;;;;;;19.20;10.77;;;11.00;92.50;;;;;;5031528;28;20496;-70
2021/04/21 00:14:21;;;;;;;15.55;9.95;;;10.90;93.60;;;;;;5030941;28;20029;-70
2021/04/21 00:16:51;;;;;;;20.45;12.73;;;10.80;93.20;;;;;;5031208;28;20025;-70
2021/04/21 00:19:19;;;;;;;17.63;11.43;;;10.70;93.90;;;;;;5031311;28;20041;-70
2021/04/21 00:21:47;;;;;;;25.02;13.80;;;10.60;94.30;;;;;;5031624;28;20392;-70
2021/04/21 00:24:15;;;;;;;22.10;13.80;;;10.70;94.10;;;;;;5031486;28;20029;-70
2021/04/21 00:26:44;;;;;;;30.83;18.83;;;10.70;94.50;;;;;;5031650;28;20025;-70
2021/04/21 00:29:12;;;;;;;24.77;13.63;;;10.70;94.60;;;;;;5031462;28;20488;-70
2021/04/21 00:31:39;;;;;;;25.45;14.68;;;10.60;94.70;;;;;;5031695;28;20025;-70
2021/04/21 00:34:06;;;;;;;20.55;13.88;;;10.60;94.70;;;;;;5030504;28;20484;-70
2021/04/21 00:36:35;;;;;;;19.88;13.20;;;10.70;94.50;;;;;;5031308;28;20057;-70
2021/04/21 00:39:02;;;;;;;20.35;13.32;;;10.70;94.40;;;;;;5037338;28;20033;-70
2021/04/21 00:41:46;;;;;;;19.60;12.45;;;10.60;94.70;;;;;;5051647;28;20029;-70
2021/04/21 00:44:19;;;;;;;20.00;12.00;;;10.60;94.60;;;;;;5042589;28;20052;-70
2021/04/21 00:46:49;;;;;;;21.00;12.02;;;10.50;94.60;;;;;;5031406;28;20025;-70
2021/04/21 00:49:39;;;;;;;19.90;11.73;;;10.40;94.70;;;;;;5030892;28;20026;-70
2021/04/21 00:52:17;;;;;;;16.63;11.20;;;10.40;94.70;;;;;;5047726;28;20033;-70
2021/04/21 00:54:56;;;;;;;14.57;9.52;;;10.50;94.60;;;;;;5038082;28;20044;-70
2021/04/21 00:57:49;;;;;;;16.83;9.52;;;10.50;94.40;;;;;;5037764;28;20021;-70
2021/04/21 01:00:18;;;;;;;13.43;8.63;;;10.50;94.50;;;;;;5050783;28;20021;-70
2021/04/21 01:02:54;;;;;;;15.23;9.30;;;10.40;94.40;;;;;;5043640;28;20025;-70
2021/04/21 01:05:28;;;;;;;15.50;8.43;;;10.40;94.50;;;;;;5030963;28;20033;-70
2021/04/21 01:08:03;;;;;;;15.57;8.82;;;10.30;94.70;;;;;;5040065;28;20120;-70
2021/04/21 01:10:33;;;;;;;15.50;9.40;;;10.20;94.70;;;;;;5049159;28;20080;-70
2021/04/21 01:13:00;;;;;;;12.27;7.65;;;10.20;94.60;;;;;;5051153;28;20059;-70
2021/04/21 01:15:28;;;;;;;12.43;7.60;;;10.20;94.80;;;;;;5050731;28;20048;-70
2021/04/21 01:17:56;;;;;;;11.25;7.18;;;10.10;95.00;;;;;;5030951;28;20469;-70
2021/04/21 01:20:40;;;;;;;11.48;6.68;;;10.10;95.00;;;;;;5040406;28;20021;-70
2021/04/21 01:23:42;;;;;;;11.65;7.15;;;10.10;95.10;;;;;;5034467;28;20040;-69
2021/04/21 01:26:20;;;;;;;10.95;6.63;;;10.10;95.10;;;;;;5045796;28;20034;-70
2021/04/21 01:28:51;;;;;;;11.63;6.70;;;10.00;95.20;;;;;;5034231;28;20025;-70
2021/04/21 01:31:20;;;;;;;13.20;8.50;;;9.90;95.40;;;;;;5050173;28;20492;-70
2021/04/21 01:33:48;;;;;;;12.60;6.75;;;9.90;95.40;;;;;;5052049;28;20052;-70
2021/04/21 01:36:19;;;;;;;11.38;7.30;;;9.80;95.70;;;;;;5034099;28;20060;-70
2021/04/21 01:38:47;;;;;;;12.40;7.15;;;9.80;95.60;;;;;;5044281;28;20029;-70
2021/04/21 01:41:17;;;;;;;14.30;7.80;;;9.80;95.60;;;;;;5052672;28;20025;-70
2021/04/21 01:43:47;;;;;;;16.90;8.55;;;9.70;95.70;;;;;;5034248;28;20558;-69
2021/04/21 01:46:16;;;;;;;13.80;8.90;;;9.70;95.60;;;;;;5033845;28;20040;-70
2021/04/21 01:48:42;;;;;;;15.40;8.70;;;9.70;95.70;;;;;;5034002;28;20034;-70
2021/04/21 01:51:20;;;;;;;16.58;10.20;;;9.60;95.80;;;;;;5042458;28;20042;-70
2021/04/21 01:53:55;;;;;;;17.90;9.57;;;9.60;95.80;;;;;;5048191;28;20033;-70
2021/04/21 01:56:25;;;;;;;;;;;9.70;95.90;;;;;;5050813;28;20071;-70
2021/04/21 01:59:13;;;;;;;14.80;8.73;;;9.70;95.70;;;;;;5046220;28;19955;-70
2021/04/21 02:01:46;;;;;;;16.52;9.25;;;9.60;95.80;;;;;;5033931;28;20037;-70
2021/04/21 02:04:52;;;;;;;14.32;8.27;;;9.60;95.70;;;;;;5033665;28;20017;-70
2021/04/21 02:07:39;;;;;;;11.57;7.20;;;9.40;95.90;;;;;;5033715;28;20112;-70
2021/04/21 02:10:28;;;;;;;15.82;8.82;;;9.30;96.30;;;;;;5035247;28;20049;-70
2021/04/21 02:13:04;;;;;;;14.57;8.75;;;9.20;96.30;;;;;;5052024;28;20032;-70
2021/04/21 02:15:55;;;;;;;14.38;7.60;;;9.20;96.40;;;;;;5036779;28;20466;-70
2021/04/21 02:18:52;;;;;;;14.23;8.02;;;9.30;96.20;;;;;;5035787;28;20069;-70
2021/04/21 02:21:40;;;;;;;12.77;8.50;;;9.20;96.30;;;;;;5041792;28;20048;-70
2021/04/21 02:24:24;;;;;;;15.10;8.93;;;9.30;96.10;;;;;;5033318;28;20030;-70
2021/04/21 02:27:04;;;;;;;15.77;9.88;;;9.20;96.30;;;;;;5036728;28;20090;-70
2021/04/21 02:29:52;;;;;;;14.73;9.13;;;9.30;96.10;;;;;;5053259;28;20033;-70
2021/04/21 02:32:43;;;;;;;15.10;9.30;;;9.30;96.00;;;;;;5032745;28;20029;-70
2021/04/21 02:35:21;;;;;;;13.77;8.00;;;9.20;96.00;;;;;;5032927;28;20045;-70
2021/04/21 02:38:05;;;;;;;13.05;8.25;;;9.10;96.20;;;;;;5033505;28;20083;-69
2021/04/21 02:41:01;;;;;;;17.35;9.50;;;9.10;96.40;;;;;;5039372;28;20545;-70
2021/04/21 02:43:38;;;;;;;15.63;8.65;;;9.20;96.10;;;;;;5051587;28;20045;-70
2021/04/21 02:46:22;;;;;;;13.95;8.93;;;9.20;96.30;;;;;;5053012;28;20032;-70
2021/04/21 02:49:06;;;;;;;13.38;7.78;;;9.10;96.40;;;;;;5051915;28;20032;-70
2021/04/21 02:51:53;;;;;;;14.63;8.02;;;8.90;96.60;;;;;;5032580;28;20033;-70
2021/04/21 02:54:52;;;;;;;14.65;8.55;;;9.00;96.80;;;;;;5044208;28;20029;-70
2021/04/21 02:57:35;;;;;;;12.07;7.82;;;8.90;96.80;;;;;;5041903;28;20025;-70
2021/04/21 03:00:10;;;;;;;12.43;7.20;;;9.00;96.90;;;;;;5032856;28;20500;-70
2021/04/21 03:03:03;;;;;;;13.77;7.80;;;8.90;97.10;;;;;;5030104;28;20036;-69
2021/04/21 03:05:32;;;;;;;13.30;7.57;;;8.90;97.30;;;;;;5032914;28;20072;-70
2021/04/21 03:08:27;;;;;;;10.98;6.70;;;8.80;97.20;;;;;;5035403;28;20155;-69
2021/04/21 03:11:11;;;;;;;12.43;7.97;;;8.80;97.20;;;;;;5028845;28;20041;-69
2021/04/21 03:13:55;;;;;;;12.55;7.97;;;8.80;97.00;;;;;;5024965;28;20026;-70
2021/04/21 03:16:22;;;;;;;15.57;7.70;;;8.80;97.20;;;;;;5024811;28;20085;-70
2021/04/21 03:18:50;;;;;;;13.82;9.05;;;8.60;97.50;;;;;;5025311;28;20025;-69
2021/04/21 03:21:27;;;;;;;13.15;7.72;;;8.70;97.50;;;;;;5024857;28;20033;-70
2021/04/21 03:24:08;;;;;;;11.82;7.43;;;8.90;97.20;;;;;;5029570;28;20071;-70
2021/04/21 03:26:37;;;;;;;13.82;8.05;;;8.70;97.80;;;;;;5025062;28;20025;-69
2021/04/21 03:29:06;;;;;;;13.02;7.45;;;8.80;97.70;;;;;;5024650;28;20037;-70
2021/04/21 03:31:36;;;;;;;16.75;8.55;;;8.50;98.30;;;;;;5024367;28;20056;-70
2021/04/21 03:34:06;;;;;;;15.77;9.25;;;8.50;98.00;;;;;;5024721;28;20494;-69
2021/04/21 03:36:34;;;;;;;13.88;8.20;;;8.50;98.20;;;;;;5028140;28;20423;-69
2021/04/21 03:39:01;;;;;;;14.32;8.45;;;8.50;98.20;;;;;;5044087;28;20021;-70
2021/04/21 03:41:26;;;;;;;13.55;9.23;;;8.60;98.10;;;;;;5032590;28;20096;-69
2021/04/21 03:43:53;;;;;;;13.90;7.90;;;8.50;98.30;;;;;;5024167;28;20039;-70
2021/04/21 03:46:19;;;;;;;14.30;8.30;;;8.70;97.90;;;;;;5035472;28;20170;-69
2021/04/21 03:48:46;;;;;;;17.52;7.82;;;8.60;97.80;;;;;;5040056;28;20044;-70
2021/04/21 03:51:13;;;;;;;14.13;8.45;;;8.60;97.80;;;;;;5040328;28;20025;-70
2021/04/21 03:53:40;;;;;;;14.88;8.68;;;8.50;98.10;;;;;;5024260;28;20029;-70
2021/04/21 03:56:10;;;;;;;14.20;7.65;;;8.30;98.20;;;;;;5025329;28;20136;-69
2021/04/21 03:58:38;;;;;;;15.13;9.05;;;8.40;98.30;;;;;;5027097;28;20407;-69
2021/04/21 04:01:07;;;;;;;15.70;7.85;;;8.30;98.50;;;;;;5036948;28;20049;-70
2021/04/21 04:03:35;;;;;;;13.23;8.82;;;8.20;98.70;;;;;;5024701;28;20483;-70
2021/04/21 04:06:22;;;;;;;14.95;8.73;;;8.20;98.60;;;;;;5024521;28;20037;-69
2021/04/21 04:08:51;;;;;;;16.92;9.20;;;8.30;98.70;;;;;;5039300;28;20068;-70
2021/04/21 04:11:22;;;;;;;15.10;7.90;;;8.20;98.70;;;;;;5024347;28;20083;-70
2021/04/21 04:13:52;;;;;;;17.27;9.20;;;8.20;98.70;;;;;;5024185;28;20025;-69
2021/04/21 04:16:20;;;;;;;13.80;9.43;;;8.20;98.80;;;;;;5039856;28;20449;-70
2021/04/21 04:18:47;;;;;;;15.40;8.02;;;8.20;98.90;;;;;;5035714;28;20037;-69
2021/04/21 04:21:14;;;;;;;14.43;8.10;;;8.10;99.00;;;;;;5042955;28;20115;-70
2021/04/21 04:23:41;;;;;;;13.32;7.57;;;8.10;99.10;;;;;;5024494;28;20079;-69
2021/04/21 04:26:09;;;;;;;13.82;8.10;;;8.00;99.10;;;;;;5024293;28;20101;-69
2021/04/21 04:28:36;;;;;;;16.13;8.82;;;8.00;99.10;;;;;;5023184;28;20025;-69
2021/04/21 04:31:04;;;;;;;12.07;8.13;;;7.90;99.30;;;;;;5024477;28;20497;-69
2021/04/21 04:33:31;;;;;;;12.57;7.47;;;7.90;99.40;;;;;;5023504;28;20026;-69
2021/04/21 04:35:57;;;;;;;12.05;7.78;;;8.00;99.40;;;;;;5028068;28;20025;-70
2021/04/21 04:38:23;;;;;;;13.02;7.70;;;8.00;99.40;;;;;;5035797;28;20476;-70
2021/04/21 04:40:52;;;;;;;13.48;8.30;;;8.10;99.30;;;;;;5044113;28;20110;-69
2021/04/21 04:43:20;;;;;;;12.55;7.57;;;8.00;99.40;;;;;;5042091;28;20025;-70
2021/04/21 04:45:55;;;;;;;13.73;8.25;;;8.00;99.50;;;;;;5043662;28;20514;-70
2021/04/21 04:48:28;;;;;;;12.88;7.85;;;8.00;99.40;;;;;;5039406;28;20029;-70
2021/04/21 04:51:00;;;;;;;15.55;8.35;;;8.00;99.50;;;;;;5044114;28;20057;-69
2021/04/21 04:53:28;;;;;;;16.40;8.32;;;8.00;99.50;;;;;;5039129;28;20022;-69
2021/04/21 04:55:55;;;;;;;13.20;8.35;;;8.00;99.70;;;;;;5030082;28;20510;-69
2021/04/21 04:58:25;;;;;;;13.07;8.10;;;8.00;99.70;;;;;;5035854;28;20031;-70
2021/04/21 05:00:54;;;;;;;13.85;8.73;;;8.00;99.70;;;;;;5047136;28;20363;-69
2021/04/21 05:03:23;;;;;;;13.52;7.95;;;8.20;99.60;;;;;;5046937;28;20029;-69
2021/04/21 05:05:57;;;;;;;15.05;8.13;;;8.20;99.60;;;;;;5033880;28;20021;-69
2021/04/21 05:08:47;;;;;;;12.70;6.93;;;8.10;99.70;;;;;;5037511;28;20050;-70
2021/04/21 05:11:15;;;;;;;12.43;7.28;;;8.10;99.90;;;;;;5027577;28;20041;-70
2021/04/21 05:13:47;;;;;;;14.25;8.77;;;8.20;99.90;;;;;;5027352;28;20435;-69
2021/04/21 05:16:13;;;;;;;12.18;7.68;;;8.20;99.90;;;;;;5038859;28;20151;-70
2021/04/21 05:19:06;;;;;;;13.77;8.65;;;8.30;99.90;;;;;;5046494;28;20036;-69
2021/04/21 05:21:56;;;;;;;12.38;7.28;;;8.50;99.80;;;;;;5027541;28;20061;-70
2021/04/21 05:24:40;;;;;;;14.43;7.88;;;8.70;99.60;;;;;;5045803;28;20025;-69
2021/04/21 05:27:39;;;;;;;11.52;7.03;;;8.80;99.60;;;;;;5039586;28;20049;-70
2021/04/21 05:30:42;;;;;;;12.63;6.43;;;8.80;99.90;;;;;;5041825;28;20025;-70
2021/04/21 05:33:45;;;;;;;11.07;6.18;;;8.80;99.90;;;;;;5037544;28;20516;-70
2021/04/21 05:36:36;;;;;;;10.18;5.68;;;8.70;99.90;;;;;;5030225;28;20033;-71
2021/04/21 05:39:43;;;;;;;9.93;5.60;;;8.80;98.60;;;;;;5028019;28;20068;-70
2021/04/21 05:42:17;;;;;;;12.65;6.70;;;9.00;98.00;;;;;;5027136;28;20124;-71
2021/04/21 05:45:19;;;;;;;8.48;5.15;;;9.00;98.50;;;;;;5027207;28;20082;-71
2021/04/21 05:48:23;;;;;;;9.10;4.80;;;9.10;97.20;;;;;;5027111;28;20029;-71
2021/04/21 05:51:13;;;;;;;11.45;7.22;;;9.10;97.40;;;;;;5026421;28;20040;-71
2021/04/21 05:53:50;;;;;;;11.40;6.97;;;9.10;98.40;;;;;;5026247;28;20021;-71
2021/04/21 05:56:40;;;;;;;12.73;8.30;;;9.10;98.70;;;;;;5033737;28;20037;-71
2021/04/21 05:59:09;;;;;;;9.05;5.30;;;9.10;99.10;;;;;;5046137;28;20029;-71
2021/04/21 06:01:40;;;;;;;11.73;7.13;;;8.90;99.50;;;;;;5046233;28;20033;-71
2021/04/21 06:04:05;;;;;;;10.45;6.13;;;9.00;99.90;;;;;;5028274;28;20033;-71
2021/04/21 06:06:31;;;;;;;9.60;6.45;;;8.90;99.90;;;;;;5025235;28;20029;-71
2021/04/21 06:09:06;;;;;;;10.18;6.18;;;8.90;99.90;;;;;;5026009;28;20107;-71
2021/04/21 06:11:33;;;;;;;11.50;6.90;;;8.90;99.90;;;;;;5026049;28;20029;-71
2021/04/21 06:14:00;;;;;;;12.13;7.18;;;8.90;99.90;;;;;;5029760;28;20025;-71
2021/04/21 06:16:28;;;;;;;12.60;8.20;;;9.10;99.90;;;;;;5040443;28;20045;-71
2021/04/21 06:18:59;;;;;;;8.23;5.20;;;9.20;99.90;;;;;;5045564;28;20116;-71
2021/04/21 06:21:28;;;;;;;7.78;4.43;;;9.30;98.30;;;;;;5045448;28;20033;-71
2021/04/21 06:23:54;;;;;;;6.78;4.13;;;9.40;97.00;;;;;;5044825;28;20028;-71
2021/04/21 06:26:29;;;;;;;7.38;4.72;;;9.50;96.80;;;;;;5039321;28;20087;-71
2021/04/21 06:29:09;;;;;;;7.15;4.32;;;9.60;96.40;;;;;;5025156;28;20029;-71
2021/04/21 06:31:39;;;;;;;7.72;4.38;;;9.80;96.30;;;;;;5037837;28;20029;-71
2021/04/21 06:34:06;;;;;;;9.27;4.53;;;10.00;96.10;;;;;;5046040;28;20059;-71
2021/04/21 06:36:40;;;;;;;8.02;4.53;;;10.10;96.50;;;;;;5027825;28;20034;-71
2021/04/21 06:39:06;;;;;;;6.30;4.22;;;10.30;95.80;;;;;;5024561;28;20040;-71
2021/04/21 06:41:32;;;;;;;7.63;4.78;;;10.40;95.80;;;;;;5025318;28;20039;-71
2021/04/21 06:43:58;;;;;;;9.00;5.07;;;10.60;96.60;;;;;;5025120;28;20025;-71
2021/04/21 06:46:25;;;;;;;8.40;5.03;;;11.00;96.70;;;;;;5025270;28;20057;-71
2021/04/21 06:49:02;;;;;;;7.65;4.88;;;11.30;96.00;;;;;;5039522;28;20430;-71
2021/04/21 06:51:33;;;;;;;7.65;4.53;;;11.20;94.90;;;;;;5043249;28;20043;-71
2021/04/21 06:54:00;;;;;;;11.98;6.13;;;11.40;94.70;;;;;;5045154;28;20407;-71
2021/04/21 06:56:32;;;;;;;8.55;4.90;;;12.30;94.30;;;;;;5024302;28;20491;-71
2021/04/21 06:58:59;;;;;;;6.97;4.75;;;13.20;93.00;;;;;;5041387;28;20029;-71
2021/04/21 07:01:26;;;;;;;6.60;4.38;;;13.90;90.80;;;;;;5044948;28;20040;-71
2021/04/21 07:03:54;;;;;;;8.13;4.85;;;15.20;90.00;;;;;;5044793;28;21136;-71
2021/04/21 07:06:21;;;;;;;7.32;4.63;;;15.60;87.00;;;;;;5035445;28;20633;-71
2021/04/21 07:08:48;;;;;;;7.03;4.40;;;16.10;85.30;;;;;;5043510;28;20114;-71
2021/04/21 07:11:13;;;;;;;11.65;5.45;;;16.30;83.60;;;;;;5038617;28;20099;-72
2021/04/21 07:13:47;;;;;;;7.53;5.20;;;16.40;85.00;;;;;;5044334;28;20418;-71
2021/04/21 07:16:27;;;;;;;10.27;5.53;;;16.40;83.60;;;;;;5039592;28;20033;-71
2021/04/21 07:19:02;;;;;;;8.73;4.85;;;17.40;83.00;;;;;;5037620;28;20427;-71
2021/04/21 07:21:29;;;;;;;11.82;5.57;;;17.20;81.00;;;;;;5041515;28;20036;-71
2021/04/21 07:24:01;;;;;;;11.93;5.63;;;16.60;81.00;;;;;;5028547;28;20026;-71
2021/04/21 07:26:45;;;;;;;10.80;5.20;;;17.50;80.20;;;;;;5025226;28;20494;-71
2021/04/21 07:29:23;;;;;;;8.30;4.65;;;17.40;79.30;;;;;;5024874;28;20104;-71
2021/04/21 07:31:50;;;;;;;10.98;5.45;;;17.40;78.30;;;;;;5025020;28;20628;-71
2021/04/21 07:34:30;;;;;;;9.73;4.88;;;17.60;76.80;;;;;;5024190;28;20562;-71
2021/04/21 07:36:56;;;;;;;6.85;4.50;;;16.90;77.60;;;;;;5024469;28;20534;-71
2021/04/21 07:39:31;;;;;;;10.70;5.15;;;15.00;82.40;;;;;;5023852;28;20100;-71
2021/04/21 07:41:56;;;;;;;7.45;4.93;;;13.70;86.10;;;;;;5024452;28;20104;-71
2021/04/21 07:44:28;;;;;;;7.15;5.18;;;13.20;88.00;;;;;;5023915;28;20527;-71
2021/04/21 07:47:03;;;;;;;7.60;4.50;;;13.00;89.80;;;;;;5024521;28;20088;-71
2021/04/21 07:49:30;;;;;;;12.15;5.63;;;12.80;90.20;;;;;;5024611;28;20079;-71
2021/04/21 07:51:56;;;;;;;8.82;5.07;;;12.60;90.40;;;;;;5024120;28;20021;-71
2021/04/21 07:54:24;;;;;;;7.13;4.63;;;12.40;90.10;;;;;;5026539;28;20036;-71
2021/04/21 07:56:54;;;;;;;8.98;5.15;;;12.20;90.30;;;;;;5029108;28;20045;-71
2021/04/21 07:59:24;;;;;;;7.65;4.80;;;12.20;90.70;;;;;;5024533;28;20038;-71
2021/04/21 08:01:51;;;;;;;6.85;4.10;;;12.50;90.30;;;;;;5024358;28;20029;-71
2021/04/21 08:04:25;;;;;;;10.85;4.95;;;12.40;90.10;;;;;;5024155;28;20030;-71
2021/04/21 08:06:55;;;;;;;6.72;4.55;;;12.40;90.00;;;;;;5024194;28;20120;-71
2021/04/21 08:09:22;;;;;;;9.63;4.93;;;12.40;90.90;;;;;;5024211;28;20542;-71
2021/04/21 08:12:07;;;;;;;10.57;4.88;;;12.50;90.50;;;;;;5022623;28;20032;-71
2021/04/21 08:14:37;;;;;;;11.02;4.70;;;12.50;90.20;;;;;;5043657;28;20016;-71
2021/04/21 08:17:03;;;;;;;10.85;4.97;;;12.50;90.20;;;;;;5023985;28;20530;-71
2021/04/21 08:19:35;;;;;;;7.47;4.57;;;12.60;90.60;;;;;;5024075;28;20101;-71
2021/04/21 08:22:01;;;;;;;8.98;4.45;;;12.60;90.80;;;;;;5024324;28;20068;-71
2021/04/21 08:24:26;;;;;;;6.82;4.82;;;12.50;90.80;;;;;;5023912;28;20045;-71
2021/04/21 08:26:54;;;;;;;9.20;4.57;;;12.80;91.10;;;;;;5023529;28;20021;-71
2021/04/21 08:29:20;;;;;;;7.97;5.00;;;12.70;90.00;;;;;;5025981;28;20121;-71
2021/04/21 08:31:52;;;;;;;6.82;4.60;;;12.80;90.00;;;;;;5026718;28;20064;-71
2021/04/21 08:34:21;;;;;;;7.95;4.40;;;13.40;90.20;;;;;;5023513;28;20492;-71
2021/04/21 08:36:47;;;;;;;6.55;4.45;;;15.30;85.90;;;;;;5023692;28;20045;-71
2021/04/21 08:39:14;;;;;;;8.55;4.57;;;16.30;83.70;;;;;;5023747;28;20091;-71
2021/04/21 08:41:42;;;;;;;9.90;5.25;;;16.30;82.10;;;;;;5024070;28;20030;-71
2021/04/21 08:44:08;;;;;;;8.18;4.43;;;16.30;81.30;;;;;;5023761;28;20068;-71
2021/04/21 08:46:35;;;;;;;8.38;5.15;;;15.90;81.40;;;;;;5023595;28;20026;-71
2021/04/21 08:49:02;;;;;;;7.40;4.88;;;16.50;81.00;;;;;;5027609;28;20403;-71
2021/04/21 08:51:29;;;;;;;9.45;6.07;;;17.00;79.30;;;;;;5043562;28;20037;-71
2021/04/21 08:54:06;;;;;;;11.55;5.18;;;17.30;78.60;;;;;;5043393;28;20104;-71
2021/04/21 08:56:35;;;;;;;9.52;4.57;;;17.00;81.30;;;;;;5043056;28;20565;-71
2021/04/21 08:59:03;;;;;;;9.73;5.00;;;17.20;81.50;;;;;;5040335;28;20064;-71
2021/04/21 09:01:30;;;;;;;7.22;5.03;;;16.90;80.30;;;;;;5023479;28;20750;-71
2021/04/21 09:03:56;;;;;;;8.75;5.22;;;16.90;80.90;;;;;;5029882;28;20029;-71
2021/04/21 09:06:21;;;;;;;9.10;5.63;;;16.70;80.30;;;;;;5043580;28;20025;-71
2021/04/21 09:08:51;;;;;;;8.90;5.88;;;16.00;78.90;;;;;;5043165;28;20090;-71
2021/04/21 09:11:20;;;;;;;10.40;5.18;;;15.40;80.20;;;;;;5042795;28;20341;-71
2021/04/21 09:13:47;;;;;;;9.48;5.53;;;15.20;81.90;;;;;;5037234;28;20042;-72
2021/04/21 09:16:13;;;;;;;9.05;5.72;;;15.00;80.80;;;;;;5022743;28;20034;-71
2021/04/21 09:18:39;;;;;;;9.27;5.95;;;14.90;82.20;;;;;;5023268;28;20014;-71
2021/04/21 09:21:06;;;;;;;10.60;6.35;;;14.70;81.70;;;;;;5023238;28;20036;-71
2021/04/21 09:23:41;;;;;;;9.48;6.20;;;14.80;82.10;;;;;;5023789;28;20962;-71
2021/04/21 09:26:22;;;;;;;8.65;6.03;;;15.00;81.30;;;;;;5024075;28;20025;-71
2021/04/21 09:28:52;;;;;;;10.05;6.40;;;14.80;80.80;;;;;;5023479;28;20037;-71
2021/04/21 09:31:23;;;;;;;9.00;5.57;;;14.80;81.60;;;;;;5023065;28;20710;-71
2021/04/21 09:34:10;;;;;;;9.30;5.97;;;14.80;83.20;;;;;;5023143;28;20030;-71
2021/04/21 09:36:41;;;;;;;13.32;7.80;;;15.20;84.00;;;;;;5036799;28;20033;-71
2021/04/21 09:39:24;;;;;;;11.55;6.90;;;15.10;80.80;;;;;;5026099;28;20484;-71
2021/04/21 09:41:58;;;;;;;10.77;7.70;;;15.50;83.60;;;;;;5026310;28;20032;-71
2021/04/21 09:44:28;;;;;;;12.60;8.48;;;15.30;81.00;;;;;;5036651;28;20025;-71
2021/04/21 09:46:54;;;;;;;10.85;7.97;;;15.20;81.30;;;;;;5028414;28;20029;-71
2021/04/21 09:49:27;;;;;;;13.80;7.65;;;15.40;81.50;;;;;;5026644;28;20060;-71
2021/04/21 09:51:53;;;;;;;11.48;6.82;;;15.30;81.20;;;;;;5027088;28;20025;-71
2021/04/21 09:54:37;;;;;;;12.85;7.57;;;15.60;83.70;;;;;;5027737;28;20037;-71
2021/04/21 09:57:11;;;;;;;10.32;7.20;;;15.60;82.30;;;;;;5031513;28;20740;-71
2021/04/21 09:59:38;;;;;;;12.15;6.57;;;15.90;80.20;;;;;;5045019;28;20079;-71
2021/04/21 10:02:27;;;;;;;10.25;7.18;;;15.70;79.90;;;;;;5032661;28;20039;-71
2021/04/21 10:04:52;;;;;;;10.82;7.03;;;16.10;81.20;;;;;;5026163;28;20021;-71
2021/04/21 10:07:19;;;;;;;13.60;8.70;;;16.50;81.30;;;;;;5026560;28;20033;-71
2021/04/21 10:09:48;;;;;;;14.70;7.95;;;16.90;80.30;;;;;;5033110;28;20053;-71
2021/04/21 10:12:25;;;;;;;11.02;7.20;;;16.80;79.70;;;;;;5036452;28;20021;-71
2021/04/21 10:15:11;;;;;;;11.25;7.78;;;16.80;80.00;;;;;;5026277;28;20112;-71
2021/04/21 10:17:42;;;;;;;13.98;7.90;;;16.70;79.20;;;;;;5026541;28;20037;-71
2021/04/21 10:20:14;;;;;;;14.00;9.13;;;16.70;80.10;;;;;;5027386;28;20052;-71
2021/04/21 10:22:41;;;;;;;14.63;9.07;;;16.80;79.70;;;;;;5026435;28;20040;-72
2021/04/21 10:25:09;;;;;;;16.50;10.00;;;17.10;77.00;;;;;;5026100;28;20022;-71
2021/04/21 10:27:35;;;;;;;13.85;8.73;;;16.90;76.40;;;;;;5026467;28;20032;-71
2021/04/21 10:30:03;;;;;;;13.20;9.27;;;17.20;79.60;;;;;;5025653;28;20026;-71
2021/04/21 10:32:30;;;;;;;15.07;9.65;;;17.30;77.60;;;;;;5025562;28;20021;-71
2021/04/21 10:34:57;;;;;;;14.10;9.23;;;17.30;78.30;;;;;;5025643;28;20101;-71
2021/04/21 10:37:23;;;;;;;13.88;9.02;;;17.40;77.00;;;;;;5026346;28;20029;-71
2021/04/21 10:39:53;;;;;;;12.13;8.57;;;17.60;76.30;;;;;;5025661;28;20017;-71
2021/04/21 10:42:20;;;;;;;13.52;9.05;;;17.70;76.80;;;;;;5026012;28;20025;-71
2021/04/21 10:44:48;;;;;;;15.20;8.90;;;18.00;74.00;;;;;;5024983;28;20075;-71
2021/04/21 10:47:15;;;;;;;15.40;9.82;;;17.80;73.50;;;;;;5036496;28;20033;-71
2021/04/21 10:49:55;;;;;;;11.13;7.68;;;17.90;74.10;;;;;;5044731;28;20055;-71
2021/04/21 10:52:42;;;;;;;12.80;8.35;;;18.10;74.70;;;;;;5024830;28;20060;-71
2021/04/21 10:55:08;;;;;;;14.25;9.35;;;18.40;73.00;;;;;;5025165;28;20045;-71
2021/04/21 10:57:35;;;;;;;12.20;8.55;;;18.70;72.20;;;;;;5038471;28;20051;-71
2021/04/21 11:00:19;;;;;;;14.20;8.82;;;18.20;70.60;;;;;;5044635;28;20033;-71
2021/04/21 11:02:55;;;;;;;13.02;7.90;;;18.40;69.10;;;;;;5024461;28;20592;-71
2021/04/21 11:05:38;;;;;;;12.88;8.45;;;18.20;68.10;;;;;;5024530;28;20036;-71
2021/04/21 11:08:15;;;;;;;12.80;8.68;;;18.50;70.00;;;;;;5024521;28;20383;-71
2021/04/21 11:10:54;;;;;;;13.80;8.48;;;18.70;70.70;;;;;;5024796;28;20601;-71
2021/04/21 11:13:23;;;;;;;11.30;8.20;;;18.80;71.10;;;;;;5030718;28;20621;-71
2021/04/21 11:15:50;;;;;;;13.45;8.85;;;19.00;69.90;;;;;;5034238;28;20045;-71
2021/04/21 11:18:25;;;;;;;14.27;8.27;;;19.00;68.70;;;;;;5024864;28;20397;-72
2021/04/21 11:20:56;;;;;;;12.55;8.18;;;18.80;69.10;;;;;;5039065;28;20914;-73
2021/04/21 11:23:56;;;;;;;13.80;8.45;;;19.00;69.90;;;;;;5044887;28;20036;-72
2021/04/21 11:26:28;;;;;;;10.68;7.72;;;19.30;68.80;;;;;;5032243;28;20602;-72
2021/04/21 11:29:04;;;;;;;13.63;7.93;;;19.40;69.10;;;;;;5024534;28;20021;-73
2021/04/21 11:31:43;;;;;;;13.10;7.78;;;19.30;67.30;;;;;;5024620;28;20234;-71
2021/04/21 11:34:18;;;;;;;15.98;8.70;;;19.40;67.00;;;;;;5024746;28;20034;-72
2021/04/21 11:36:48;;;;;;;12.60;8.63;;;18.70;67.90;;;;;;5024230;28;20056;-72
2021/04/21 11:39:14;;;;;;;11.93;7.47;;;18.60;68.00;;;;;;5024888;28;20889;-72
2021/04/21 11:41:42;;;;;;;10.38;7.15;;;18.40;67.60;;;;;;5025265;28;20108;-72
2021/04/21 11:44:09;;;;;;;11.13;7.40;;;18.30;66.50;;;;;;5024711;28;20431;-72
2021/04/21 11:46:57;;;;;;;11.98;7.63;;;18.40;67.60;;;;;;5032769;28;20029;-72
2021/04/21 11:50:00;;;;;;;11.80;7.57;;;19.00;66.80;;;;;;5042307;28;20032;-72
2021/04/21 11:52:45;;;;;;;11.70;7.70;;;19.10;68.80;;;;;;5044486;28;20017;-72
2021/04/21 11:55:23;;;;;;;15.18;8.82;;;19.00;69.30;;;;;;5027147;28;20373;-72
2021/04/21 11:57:57;;;;;;;11.77;8.10;;;18.70;68.30;;;;;;5024849;28;20400;-72
2021/04/21 12:00:26;;;;;;;14.88;8.63;;;18.80;69.00;;;;;;5024534;28;20028;-72
2021/04/21 12:02:52;;;;;;;13.15;8.45;;;18.90;69.70;;;;;;5024001;28;20113;-72
2021/04/21 12:05:26;;;;;;;12.45;8.38;;;18.70;68.30;;;;;;5036958;28;20115;-72
2021/04/21 12:07:52;;;;;;;12.10;8.60;;;18.60;69.30;;;;;;5044371;28;20032;-72
2021/04/21 12:10:20;;;;;;;11.23;7.78;;;18.70;69.40;;;;;;5043872;28;20048;-72
2021/04/21 12:12:46;;;;;;;12.27;8.05;;;18.80;68.50;;;;;;5044002;28;20033;-72
2021/04/21 12:15:13;;;;;;;14.13;8.18;;;18.70;68.60;;;;;;5042889;28;20126;-72
2021/04/21 12:17:53;;;;;;;12.65;8.70;;;18.90;69.40;;;;;;5044433;28;20555;-72
2021/04/21 12:20:29;;;;;;;12.70;8.10;;;18.70;66.90;;;;;;5024072;28;20112;-72
2021/04/21 12:22:55;;;;;;;11.60;8.25;;;19.10;68.20;;;;;;5024250;28;20028;-72
2021/04/21 12:25:27;;;;;;;14.23;6.38;;;19.20;68.60;;;;;;5024364;28;20120;-72
2021/04/21 12:27:59;;;;;;;10.95;7.53;;;18.90;67.90;;;;;;5030533;28;20043;-72
2021/04/21 12:30:29;;;;;;;9.95;7.30;;;18.70;68.20;;;;;;5029588;28;20091;-72
2021/04/21 12:32:56;;;;;;;9.77;6.47;;;18.60;67.40;;;;;;5023907;28;20048;-72
2021/04/21 12:35:23;;;;;;;9.75;6.60;;;18.60;68.30;;;;;;5023759;28;20083;-72
2021/04/21 12:37:57;;;;;;;13.00;7.65;;;18.70;69.10;;;;;;5024133;28;20049;-72
2021/04/21 12:40:28;;;;;;;12.10;7.28;;;18.80;67.40;;;;;;5024079;28;20022;-72
2021/04/21 12:43:16;;;;;;;10.93;7.00;;;18.80;67.40;;;;;;5039842;28;20055;-72
2021/04/21 12:45:43;;;;;;;11.65;7.18;;;18.70;67.40;;;;;;5043497;28;20029;-72
2021/04/21 12:48:23;;;;;;;10.20;6.85;;;18.60;67.10;;;;;;5044316;28;20376;-72
2021/04/21 12:50:52;;;;;;;10.05;6.85;;;18.30;66.90;;;;;;5043782;28;20899;-72
2021/04/21 12:53:20;;;;;;;10.98;6.75;;;18.30;68.00;;;;;;5036927;28;20568;-72
2021/04/21 12:55:48;;;;;;;11.40;6.45;;;18.10;67.60;;;;;;5031059;28;20519;-72
2021/04/21 12:58:29;;;;;;;11.50;7.40;;;18.30;67.40;;;;;;5034975;28;20035;-72
2021/04/21 13:01:16;;;;;;;10.35;6.07;;;17.90;68.00;;;;;;5043439;28;20021;-72
2021/04/21 13:04:00;;;;;;;11.13;7.07;;;17.70;69.60;;;;;;5024038;28;20033;-72
2021/04/21 13:06:43;;;;;;;11.35;6.30;;;17.70;68.10;;;;;;5024220;28;20021;-72
2021/04/21 13:09:19;;;;;;;9.18;5.88;;;17.70;69.50;;;;;;5039463;28;20471;-72
2021/04/21 13:11:57;;;;;;;8.52;4.90;;;17.40;68.90;;;;;;5043357;28;20100;-72
2021/04/21 13:14:35;;;;;;;7.38;4.57;;;17.20;69.60;;;;;;5043907;28;20099;-72
2021/04/21 13:17:00;;;;;;;8.35;4.28;;;17.00;71.00;;;;;;5047350;28;20033;-72